Chesterfield, Missouri
Current Conditions -  °F | °C
As of 5:54 PM on Thursday 18 Dec 2014 (Local Time) from KSUS Reporting Station
Haze Haze  
Wind Chill: 34°   Ceiling: 1500
Heat Index: 34°   Visibility: 5mi
Dew Point: 29°   Wind: 0mph
Humidity: 82%   Direction: NA
Pressure: 30.25"   Gusts: NA
Location:  38.65°N, 90.55°W
Report Text: KSUS 182354Z 00000KT 5SM HZ OVC015 01/M02 A3025 RMK AO2 SLPNO 60000 T00111017 10011 21006 53009
Loading
Personal Weather Stations






























Interactive Weather Map New forecast layout! Learn more

10-Day Weather Forecast

Advertisements
Track Severe Weather on mobile